Observations for Trim Patrick St
| Time | AQI | Temp °C | Hum % | Pres Pa | CO μg/m³ | H₂S μg/m³ | NO μg/m³ | NO₂ μg/m³ | O₃ μg/m³ | SO₂ μg/m³ | PM1 μg/m³ | PM2.5 μg/m³ | PM10 μg/m³ |
|---|---|---|---|---|---|---|---|---|---|---|---|---|---|
| Saturday 1 August 2026 | |||||||||||||
| 12:39 | 2 | 26.5 | 34 | 69,033 | 0 | 5.31 | 2.17 | 14.35 | 104.08 | 11 | 7.14 | 14.62 | 16.08 |
| 12:38 | 2 | 26.6 | 35 | 69,047 | 0 | 1.58 | 1.61 | 12.77 | 106.36 | 11.7 | 6.29 | 13.74 | 15.11 |
| 12:37 | 1 | 26.7 | 33 | 69,039 | 0 | 0 | 2 | 8.4 | 63.86 | 10.51 | 5.43 | 13.87 | 15.26 |
| 12:36 | 1 | 26.7 | 35 | 69,025 | 0 | 5.04 | 2 | 11.47 | 117.84 | 12.33 | 3.71 | 10.55 | 11.6 |
| 12:35 | 1 | 26.8 | 34 | 69,006 | 0 | 0 | 1.84 | 13.4 | 96.16 | 10.33 | 5.43 | 12.23 | 13.45 |
| 12:34 | 1 | 26.8 | 35 | 69,045 | 0 | 0 | 1.81 | 7.96 | 74.07 | 10.96 | 5.43 | 12.16 | 13.38 |
| 12:33 | 1 | 26.8 | 33 | 69,033 | 0 | 0 | 2.15 | 13.4 | 99.74 | 10.41 | 5.43 | 12.28 | 13.51 |
| 12:32 | 2 | 26.8 | 34 | 69,045 | 0 | 0 | 1.87 | 11.8 | 85.78 | 10.57 | 4.57 | 12.19 | 13.41 |
| 12:31 | 1 | 26.8 | 34 | 69,027 | 0 | 0 | 1.87 | 6.05 | 71.88 | 10.54 | 4.57 | 12.24 | 13.46 |
| 12:30 | 1 | 26.8 | 34 | 69,008 | 0 | 8.97 | 2.04 | 12.8 | 102.36 | 11.04 | 3.71 | 10.61 | 11.67 |
| 12:29 | 2 | 26.8 | 34 | 69,008 | 0 | 9.48 | 2.08 | 36.66 | 84.4 | 10.14 | 2.86 | 9.83 | 10.82 |
| 12:28 | 1 | 26.7 | 33 | 69,008 | 0 | 0 | 2.15 | 7.87 | 73.82 | 11.26 | 5.43 | 12.25 | 13.48 |
| 12:27 | 1 | 26.7 | 35 | 69,014 | 0 | 0 | 1.97 | 8.81 | 76.53 | 11.03 | 6.29 | 13.7 | 15.07 |
| 12:26 | 1 | 26.7 | 35 | 68,989 | 0 | 1.46 | 2.03 | 11.41 | 90.71 | 10.66 | 6.29 | 12.96 | 14.25 |
| 12:25 | 1 | 26.8 | 33 | 68,985 | 0 | 7.19 | 2.08 | 12.63 | 112.8 | 11.36 | 4.57 | 12.25 | 13.48 |
| 12:24 | 1 | 26.8 | 34 | 68,981 | 0 | 4.87 | 2.06 | 12.82 | 123.57 | 12.06 | 5.43 | 13.82 | 15.21 |
| 12:23 | 1 | 26.9 | 33 | 69,010 | 0 | 0 | 1.99 | 10.27 | 73.99 | 10.34 | 7.14 | 15.48 | 17.03 |
| 12:22 | 1 | 27 | 33 | 69,023 | 0 | 0 | 1.73 | 11.62 | 95.43 | 11.8 | 6.29 | 13.88 | 15.27 |
| 12:21 | 1 | 27.1 | 34 | 69,006 | 0 | 0 | 1.48 | 8.01 | 73.42 | 11.89 | 7.14 | 13 | 14.3 |
| 12:20 | 1 | 27.2 | 33 | 69,012 | 0 | 2.41 | 1.54 | 11.87 | 113.56 | 11.26 | 3.71 | 10.69 | 11.76 |